M/T Goviken — 9HA2718 — position and weather

sailwx.info

Track history (hours):
 
Tides and Currents Weather Stations Pressure Air Temp Water Temp Dewpoint Dewpoint Depression Visibility Wind Speed Wind Dir Waves Ship Positions

M/T Goviken

Last reported at 2015-Jan-28 09:03 UTC. Time now 2015-Jan-28 20:13 UTC.
Position N 54°23' E 005°22'.

Length 88 m; draft 5.4 m.

Type: Ship (hazmat cat C). MMSI: 215389000.

Date/timePositionNaut miles runAvg speedWind from/ knotsBaromVisibWave heightAir tempDewpointWater temp
2015-Jan-28 09:03N 54°23' E 005°22'610.9
2015-Jan-28 08:30N 54°18' E 005°15'1010.8
2015-Jan-28 07:33N 54°11' E 005°04'1010.4
2015-Jan-28 06:33N 54°01' E 004°56'1110.7
2015-Jan-28 05:33N 53°51' E 004°53'1110.7
2015-Jan-28 04:31N 53°40' E 004°51'1010.8
2015-Jan-28 03:33N 53°30' E 004°45'1110.7
2015-Jan-28 02:33N 53°20' E 004°38'1110.4
2015-Jan-28 01:27N 53°10' E 004°30'1010.6
2015-Jan-28 00:32N 53°01' E 004°23'1110.8
2015-Jan-27 23:33N 52°52' E 004°15'1211.6
2015-Jan-27 22:32N 52°42' E 004°04'1211.5
2015-Jan-27 21:32N 52°31' E 003°55'1212.1
2015-Jan-27 20:33N 52°20' E 003°52'1111.5
2015-Jan-27 19:34N 52°09' E 003°55'9 9.4
2015-Jan-27 18:34N 52°00' E 004°01'9 9.3
2015-Jan-27 17:34N 51°55' E 004°13'2 2.1
2015-Jan-27 16:31N 51°53' E 004°15'0 0.0
2015-Jan-27 15:31N 51°53' E 004°15'0 0.0
2015-Jan-27 14:25N 51°53' E 004°15'0 0.0
2015-Jan-27 13:31N 51°53' E 004°15'0 0.0
2015-Jan-27 12:28N 51°53' E 004°15'0 0.0
2015-Jan-27 11:28N 51°53' E 004°15'0 0.0
2015-Jan-27 10:25N 51°53' E 004°15'0 0.0
2015-Jan-27 09:31N 51°53' E 004°15'0 0.0
2015-Jan-27 08:31N 51°53' E 004°15'0 0.0
2015-Jan-27 07:31N 51°53' E 004°15'0 0.0
2015-Jan-27 06:31N 51°53' E 004°15'0 0.0
2015-Jan-27 05:31N 51°53' E 004°15'0 0.0
2015-Jan-27 04:22N 51°53' E 004°15'0 0.0
2015-Jan-27 03:31N 51°53' E 004°15'0 0.0
2015-Jan-27 02:31N 51°53' E 004°15'0 0.0
2015-Jan-27 01:31N 51°53' E 004°15'0 0.0
2015-Jan-27 00:31N 51°53' E 004°15'0 0.0
2015-Jan-26 23:25N 51°53' E 004°15'0 0.0
2015-Jan-26 22:25N 51°53' E 004°15'0 0.0
2015-Jan-26 21:31N 51°53' E 004°15'0 0.0
2015-Jan-26 20:31N 51°53' E 004°15'0 0.0
2015-Jan-26 19:31N 51°53' E 004°15'0 0.0
2015-Jan-26 17:33N 51°53' E 004°15'1 1.4
2015-Jan-26 16:33N 51°54' E 004°14'3 3.0
2015-Jan-26 15:33N 51°56' E 004°11'1010.0
2015-Jan-26 14:33N 51°60' E 003°56'4 4.3
2015-Jan-26 13:33N 51°59' E 003°49'5 4.8
2015-Jan-26 12:33N 52°03' E 003°47'7 6.3
2015-Jan-26 11:28N 52°10' E 003°43'0 0.1
2015-Jan-26 10:28N 52°10' E 003°43'0 0.0
2015-Jan-26 03:25N 52°10' E 003°43'0 0.1
2015-Jan-26 02:28N 52°09' E 003°43'0 0.0
2015-Jan-26 00:19N 52°10' E 003°42'0 0.0
2015-Jan-25 23:31N 52°10' E 003°43'0 0.1
2015-Jan-25 22:04N 52°10' E 003°43'0 0.0
2015-Jan-25 19:13N 52°10' E 003°43'0 0.0
2015-Jan-25 16:22N 52°10' E 003°43'0 0.1
2015-Jan-25 15:31N 52°10' E 003°43'0 0.1
2015-Jan-25 14:28N 52°10' E 003°43'0 0.0
2015-Jan-25 13:31N 52°10' E 003°42'0 0.0
2015-Jan-25 12:22N 52°10' E 003°42'0 0.0
2015-Jan-25 11:28N 52°10' E 003°43'0 0.1
2015-Jan-25 10:28N 52°10' E 003°43'0 0.1
2015-Jan-25 09:04N 52°10' E 003°43'0 0.1
2015-Jan-25 08:16N 52°10' E 003°43'0 0.1
2015-Jan-25 07:31N 52°10' E 003°43'0 0.0
2015-Jan-25 06:07N 52°10' E 003°43'0 0.0
2015-Jan-25 05:22N 52°10' E 003°43'0 0.1
2015-Jan-25 03:16N 52°09' E 003°43'0 0.1
2015-Jan-25 02:25N 52°09' E 003°43'0 0.0
2015-Jan-25 01:28N 52°09' E 003°43'0 0.0
2015-Jan-25 00:28N 52°09' E 003°43'0 0.0
2015-Jan-24 21:19N 52°09' E 003°43'0 0.1
2015-Jan-24 19:13N 52°10' E 003°43'0 0.0
2015-Jan-24 17:28N 52°10' E 003°43'0 0.0
2015-Jan-24 16:13N 52°10' E 003°43'0 0.2
2015-Jan-24 15:31N 52°10' E 003°43'0 0.1
2015-Jan-24 14:22N 52°09' E 003°43'0 0.0
2015-Jan-24 13:10N 52°09' E 003°43'0 0.0
2015-Jan-24 12:31N 52°09' E 003°43'0 0.0
2015-Jan-24 11:28N 52°09' E 003°43'0 0.0
2015-Jan-24 10:28N 52°09' E 003°43'0 0.1
2015-Jan-24 09:28N 52°09' E 003°43'0 0.1
2015-Jan-24 08:16N 52°10' E 003°43'0 0.1
2015-Jan-24 06:16N 52°10' E 003°43'0 0.1
2015-Jan-24 05:13N 52°10' E 003°43'0 0.0
2015-Jan-24 02:28N 52°10' E 003°43'0 0.0
2015-Jan-24 00:31N 52°10' E 003°43'0 0.2
2015-Jan-23 23:31N 52°10' E 003°42'0 0.1
2015-Jan-23 22:22N 52°10' E 003°43'0 0.1
2015-Jan-23 21:07N 52°10' E 003°43'0 0.0
2015-Jan-23 20:25N 52°10' E 003°43'0 0.0
2015-Jan-23 19:13N 52°10' E 003°43'0 0.0
2015-Jan-23 18:19N 52°10' E 003°43'0 0.0
2015-Jan-23 17:19N 52°10' E 003°43'0 0.0
2015-Jan-23 16:31N 52°10' E 003°43'0 0.0
2015-Jan-23 15:31N 52°10' E 003°43'0 0.0
2015-Jan-23 14:28N 52°10' E 003°43'0 0.1
2015-Jan-23 13:25N 52°09' E 003°43'0 0.0
2015-Jan-23 12:25N 52°09' E 003°43'0 0.0
2015-Jan-23 10:07N 52°09' E 003°43'0 0.0
2015-Jan-23 08:22N 52°10' E 003°43'0 0.1
2015-Jan-23 07:22N 52°10' E 003°43'0 0.0
2015-Jan-23 06:25N 52°10' E 003°43'0 0.0
2015-Jan-23 05:31N 52°10' E 003°43'0 0.0
2015-Jan-23 04:28N 52°10' E 003°43'0 0.0
2015-Jan-23 03:28N 52°10' E 003°43'0 0.1
2015-Jan-23 02:22N 52°10' E 003°43'0 0.1
2015-Jan-23 01:31N 52°09' E 003°42'0 0.0
2015-Jan-23 00:16N 52°09' E 003°42'0 0.0
2015-Jan-22 23:10N 52°09' E 003°42'0 0.0
2015-Jan-22 22:25N 52°09' E 003°42'0 0.0
2015-Jan-22 21:22N 52°09' E 003°43'0 0.0
2015-Jan-22 20:31N 52°09' E 003°43'0 0.0
2015-Jan-22 19:31N 52°09' E 003°42'5 4.8
2015-Jan-22 18:33N 52°13' E 003°46'1010.3
2015-Jan-22 17:33N 52°24' E 003°49'10 9.8
2015-Jan-22 16:33N 52°33' E 003°52'4310.2
2015-Jan-22 12:18N 53°12' E 004°25'1311.4
2015-Jan-22 11:11N 53°24' E 004°32'711.6
2015-Jan-22 10:33N 53°31' E 004°36'3311.0
2015-Jan-22 07:31N 54°02' E 004°55'1010.7
2015-Jan-22 06:33N 54°11' E 005°04'1111.2
2015-Jan-22 05:33N 54°19' E 005°17'22210.1
2015-Jan-21 07:33N 58°01' E 005°07'9 9.3
2015-Jan-21 06:34N 58°10' E 005°03'9 9.2
2015-Jan-21 05:33N 58°20' E 005°03'29 9.6
2015-Jan-21 02:33N 58°48' E 005°06'1010.4
2015-Jan-21 01:33N 58°59' E 005°08'1010.1
2015-Jan-21 00:33N 59°06' E 005°22'10 9.9
2015-Jan-20 23:33N 59°15' E 005°31'1 0.1
2015-Jan-20 11:10N 59°16' E 005°30'3 4.7
2015-Jan-20 10:33N 59°14' E 005°31'8 7.7
2015-Jan-20 09:33N 59°06' E 005°26'7 6.8
2015-Jan-20 08:33N 59°03' E 005°15'4 3.5
2015-Jan-20 07:33N 59°00' E 005°11'1 1.4
2015-Jan-20 06:33N 58°59' E 005°11'9 9.1
2015-Jan-20 05:33N 58°50' E 005°06'29 9.8
2015-Jan-20 02:33N 58°21' E 005°03'1110.2
2015-Jan-20 01:31N 58°10' E 005°03'1010.4
2015-Jan-20 00:33N 58°00' E 005°07'21910.3
2015-Jan-19 03:25N 54°22' E 005°20'910.6
2015-Jan-19 02:33N 54°15' E 005°10'1010.4
2015-Jan-19 01:33N 54°07' E 004°58'1410.6
2015-Jan-19 00:12N 53°53' E 004°54'1710.4
2015-Jan-18 22:33N 53°36' E 004°49'1010.1
2015-Jan-18 21:33N 53°26' E 004°42'2310.1
2015-Jan-18 19:15N 53°05' E 004°26'710.4
2015-Jan-18 18:33N 52°59' E 004°21'1110.6
2015-Jan-18 17:32N 52°49' E 004°13'1110.7
2015-Jan-18 16:33N 52°41' E 004°02'1110.9
2015-Jan-18 15:33N 52°31' E 003°55'1111.5
2015-Jan-18 14:33N 52°20' E 003°52'1211.5
2015-Jan-18 13:34N 52°08' E 003°55'8 8.2
2015-Jan-18 12:33N 52°01' E 004°00'9 9.3
2015-Jan-18 11:33N 51°55' E 004°13'3 2.6
2015-Jan-18 10:33N 51°53' E 004°14'1 0.6
2015-Jan-18 09:31N 51°53' E 004°15'  
Track history (hours):
 
Tides and Currents Weather Stations Pressure Air Temp Water Temp Dewpoint Dewpoint Depression Visibility Wind Speed Wind Dir Waves Ship Positions

M/T Goviken

Last reported at 2015-Jan-28 09:03 UTC. Time now 2015-Jan-28 20:13 UTC.
Position N 54°23' E 005°22'.

Length 88 m; draft 5.4 m.

Type: Ship (hazmat cat C). MMSI: 215389000.

Date/timePositionNaut miles runAvg speedWind from/ knotsBaromVisibWave heightAir tempDewpointWater temp
2015-Jan-28 09:03N 54°23' E 005°22'610.9
2015-Jan-28 08:30N 54°18' E 005°15'1010.8
2015-Jan-28 07:33N 54°11' E 005°04'1010.4
2015-Jan-28 06:33N 54°01' E 004°56'1110.7
2015-Jan-28 05:33N 53°51' E 004°53'1110.7
2015-Jan-28 04:31N 53°40' E 004°51'1010.8
2015-Jan-28 03:33N 53°30' E 004°45'1110.7
2015-Jan-28 02:33N 53°20' E 004°38'1110.4
2015-Jan-28 01:27N 53°10' E 004°30'1010.6
2015-Jan-28 00:32N 53°01' E 004°23'1110.8
2015-Jan-27 23:33N 52°52' E 004°15'1211.6
2015-Jan-27 22:32N 52°42' E 004°04'1211.5
2015-Jan-27 21:32N 52°31' E 003°55'1212.1
2015-Jan-27 20:33N 52°20' E 003°52'1111.5
2015-Jan-27 19:34N 52°09' E 003°55'9 9.4
2015-Jan-27 18:34N 52°00' E 004°01'9 9.3
2015-Jan-27 17:34N 51°55' E 004°13'2 2.1
2015-Jan-27 16:31N 51°53' E 004°15'0 0.0
2015-Jan-27 15:31N 51°53' E 004°15'0 0.0
2015-Jan-27 14:25N 51°53' E 004°15'0 0.0
2015-Jan-27 13:31N 51°53' E 004°15'0 0.0
2015-Jan-27 12:28N 51°53' E 004°15'0 0.0
2015-Jan-27 11:28N 51°53' E 004°15'0 0.0
2015-Jan-27 10:25N 51°53' E 004°15'0 0.0
2015-Jan-27 09:31N 51°53' E 004°15'0 0.0
2015-Jan-27 08:31N 51°53' E 004°15'0 0.0
2015-Jan-27 07:31N 51°53' E 004°15'0 0.0
2015-Jan-27 06:31N 51°53' E 004°15'0 0.0
2015-Jan-27 05:31N 51°53' E 004°15'0 0.0
2015-Jan-27 04:22N 51°53' E 004°15'0 0.0
2015-Jan-27 03:31N 51°53' E 004°15'0 0.0
2015-Jan-27 02:31N 51°53' E 004°15'0 0.0
2015-Jan-27 01:31N 51°53' E 004°15'0 0.0
2015-Jan-27 00:31N 51°53' E 004°15'0 0.0
2015-Jan-26 23:25N 51°53' E 004°15'0 0.0
2015-Jan-26 22:25N 51°53' E 004°15'0 0.0
2015-Jan-26 21:31N 51°53' E 004°15'0 0.0
2015-Jan-26 20:31N 51°53' E 004°15'0 0.0
2015-Jan-26 19:31N 51°53' E 004°15'0 0.0
2015-Jan-26 17:33N 51°53' E 004°15'1 1.4
2015-Jan-26 16:33N 51°54' E 004°14'3 3.0
2015-Jan-26 15:33N 51°56' E 004°11'1010.0
2015-Jan-26 14:33N 51°60' E 003°56'4 4.3
2015-Jan-26 13:33N 51°59' E 003°49'5 4.8
2015-Jan-26 12:33N 52°03' E 003°47'7 6.3
2015-Jan-26 11:28N 52°10' E 003°43'0 0.1
2015-Jan-26 10:28N 52°10' E 003°43'0 0.0
2015-Jan-26 03:25N 52°10' E 003°43'0 0.1
2015-Jan-26 02:28N 52°09' E 003°43'0 0.0
2015-Jan-26 00:19N 52°10' E 003°42'0 0.0
2015-Jan-25 23:31N 52°10' E 003°43'0 0.1
2015-Jan-25 22:04N 52°10' E 003°43'0 0.0
2015-Jan-25 19:13N 52°10' E 003°43'0 0.0
2015-Jan-25 16:22N 52°10' E 003°43'0 0.1
2015-Jan-25 15:31N 52°10' E 003°43'0 0.1
2015-Jan-25 14:28N 52°10' E 003°43'0 0.0
2015-Jan-25 13:31N 52°10' E 003°42'0 0.0
2015-Jan-25 12:22N 52°10' E 003°42'0 0.0
2015-Jan-25 11:28N 52°10' E 003°43'0 0.1
2015-Jan-25 10:28N 52°10' E 003°43'0 0.1
2015-Jan-25 09:04N 52°10' E 003°43'0 0.1
2015-Jan-25 08:16N 52°10' E 003°43'0 0.1
2015-Jan-25 07:31N 52°10' E 003°43'0 0.0
2015-Jan-25 06:07N 52°10' E 003°43'0 0.0
2015-Jan-25 05:22N 52°10' E 003°43'0 0.1
2015-Jan-25 03:16N 52°09' E 003°43'0 0.1
2015-Jan-25 02:25N 52°09' E 003°43'0 0.0
2015-Jan-25 01:28N 52°09' E 003°43'0 0.0
2015-Jan-25 00:28N 52°09' E 003°43'0 0.0
2015-Jan-24 21:19N 52°09' E 003°43'0 0.1
2015-Jan-24 19:13N 52°10' E 003°43'0 0.0
2015-Jan-24 17:28N 52°10' E 003°43'0 0.0
2015-Jan-24 16:13N 52°10' E 003°43'0 0.2
2015-Jan-24 15:31N 52°10' E 003°43'0 0.1
2015-Jan-24 14:22N 52°09' E 003°43'0 0.0
2015-Jan-24 13:10N 52°09' E 003°43'0 0.0
2015-Jan-24 12:31N 52°09' E 003°43'0 0.0
2015-Jan-24 11:28N 52°09' E 003°43'0 0.0
2015-Jan-24 10:28N 52°09' E 003°43'0 0.1
2015-Jan-24 09:28N 52°09' E 003°43'0 0.1
2015-Jan-24 08:16N 52°10' E 003°43'0 0.1
2015-Jan-24 06:16N 52°10' E 003°43'0 0.1
2015-Jan-24 05:13N 52°10' E 003°43'0 0.0
2015-Jan-24 02:28N 52°10' E 003°43'0 0.0
2015-Jan-24 00:31N 52°10' E 003°43'0 0.2
2015-Jan-23 23:31N 52°10' E 003°42'0 0.1
2015-Jan-23 22:22N 52°10' E 003°43'0 0.1
2015-Jan-23 21:07N 52°10' E 003°43'0 0.0
2015-Jan-23 20:25N 52°10' E 003°43'0 0.0
2015-Jan-23 19:13N 52°10' E 003°43'0 0.0
2015-Jan-23 18:19N 52°10' E 003°43'0 0.0
2015-Jan-23 17:19N 52°10' E 003°43'0 0.0
2015-Jan-23 16:31N 52°10' E 003°43'0 0.0
2015-Jan-23 15:31N 52°10' E 003°43'0 0.0
2015-Jan-23 14:28N 52°10' E 003°43'0 0.1
2015-Jan-23 13:25N 52°09' E 003°43'0 0.0
2015-Jan-23 12:25N 52°09' E 003°43'0 0.0
2015-Jan-23 10:07N 52°09' E 003°43'0 0.0
2015-Jan-23 08:22N 52°10' E 003°43'0 0.1
2015-Jan-23 07:22N 52°10' E 003°43'0 0.0
2015-Jan-23 06:25N 52°10' E 003°43'0 0.0
2015-Jan-23 05:31N 52°10' E 003°43'0 0.0
2015-Jan-23 04:28N 52°10' E 003°43'0 0.0
2015-Jan-23 03:28N 52°10' E 003°43'0 0.1
2015-Jan-23 02:22N 52°10' E 003°43'0 0.1
2015-Jan-23 01:31N 52°09' E 003°42'0 0.0
2015-Jan-23 00:16N 52°09' E 003°42'0 0.0
2015-Jan-22 23:10N 52°09' E 003°42'0 0.0
2015-Jan-22 22:25N 52°09' E 003°42'0 0.0
2015-Jan-22 21:22N 52°09' E 003°43'0 0.0
2015-Jan-22 20:31N 52°09' E 003°43'0 0.0
2015-Jan-22 19:31N 52°09' E 003°42'5 4.8
2015-Jan-22 18:33N 52°13' E 003°46'1010.3
2015-Jan-22 17:33N 52°24' E 003°49'10 9.8
2015-Jan-22 16:33N 52°33' E 003°52'4310.2
2015-Jan-22 12:18N 53°12' E 004°25'1311.4
2015-Jan-22 11:11N 53°24' E 004°32'711.6
2015-Jan-22 10:33N 53°31' E 004°36'3311.0
2015-Jan-22 07:31N 54°02' E 004°55'1010.7
2015-Jan-22 06:33N 54°11' E 005°04'1111.2
2015-Jan-22 05:33N 54°19' E 005°17'22210.1
2015-Jan-21 07:33N 58°01' E 005°07'9 9.3
2015-Jan-21 06:34N 58°10' E 005°03'9 9.2
2015-Jan-21 05:33N 58°20' E 005°03'29 9.6
2015-Jan-21 02:33N 58°48' E 005°06'1010.4
2015-Jan-21 01:33N 58°59' E 005°08'1010.1
2015-Jan-21 00:33N 59°06' E 005°22'10 9.9
2015-Jan-20 23:33N 59°15' E 005°31'1 0.1
2015-Jan-20 11:10N 59°16' E 005°30'3 4.7
2015-Jan-20 10:33N 59°14' E 005°31'8 7.7
2015-Jan-20 09:33N 59°06' E 005°26'7 6.8
2015-Jan-20 08:33N 59°03' E 005°15'4 3.5
2015-Jan-20 07:33N 59°00' E 005°11'1 1.4
2015-Jan-20 06:33N 58°59' E 005°11'9 9.1
2015-Jan-20 05:33N 58°50' E 005°06'29 9.8
2015-Jan-20 02:33N 58°21' E 005°03'1110.2
2015-Jan-20 01:31N 58°10' E 005°03'1010.4
2015-Jan-20 00:33N 58°00' E 005°07'21910.3
2015-Jan-19 03:25N 54°22' E 005°20'910.6
2015-Jan-19 02:33N 54°15' E 005°10'1010.4
2015-Jan-19 01:33N 54°07' E 004°58'1410.6
2015-Jan-19 00:12N 53°53' E 004°54'1710.4
2015-Jan-18 22:33N 53°36' E 004°49'1010.1
2015-Jan-18 21:33N 53°26' E 004°42'2310.1
2015-Jan-18 19:15N 53°05' E 004°26'710.4
2015-Jan-18 18:33N 52°59' E 004°21'1110.6
2015-Jan-18 17:32N 52°49' E 004°13'1110.7
2015-Jan-18 16:33N 52°41' E 004°02'1110.9
2015-Jan-18 15:33N 52°31' E 003°55'1111.5
2015-Jan-18 14:33N 52°20' E 003°52'1211.5
2015-Jan-18 13:34N 52°08' E 003°55'8 8.2
2015-Jan-18 12:33N 52°01' E 004°00'9 9.3
2015-Jan-18 11:33N 51°55' E 004°13'3 2.6
2015-Jan-18 10:33N 51°53' E 004°14'1 0.6
2015-Jan-18 09:31N 51°53' E 004°15'  

Dump ship's entire track history